sensor_id;sensor_type;location;lat;lon;timestamp;P1;P2;P0
84751;PMS5003;74978;37.772;-122.432;2024-01-15T00:00:19;5;5;
84751;PMS5003;74978;37.772;-122.432;2024-01-15T00:02:45;5;5;
84751;PMS5003;74978;37.772;-122.432;2024-01-15T00:05:10;5;5;
84751;PMS5003;74978;37.772;-122.432;2024-01-15T00:07:35;4;4;
84751;PMS5003;74978;37.772;-122.432;2024-01-15T00:10:01;10;9;
84751;PMS5003;74978;37.772;-122.432;2024-01-15T00:12:27;7;5;
84751;PMS5003;74978;37.772;-122.432;2024-01-15T00:14:52;15;14;
84751;PMS5003;74978;37.772;-122.432;2024-01-15T00:17:17;9;9;
84751;PMS5003;74978;37.772;-122.432;2024-01-15T00:19:43;8;7;
84751;PMS5003;74978;37.772;-122.432;2024-01-15T00:22:09;8;7;
84751;PMS5003;74978;37.772;-122.432;2024-01-15T00:24:34;7;6;
84751;PMS5003;74978;37.772;-122.432;2024-01-15T00:27:00;5;5;
84751;PMS5003;74978;37.772;-122.432;2024-01-15T00:29:25;6;4;
84751;PMS5003;74978;37.772;-122.432;2024-01-15T00:31:50;5;3;
84751;PMS5003;74978;37.772;-122.432;2024-01-15T00:34:16;5;2;
84751;PMS5003;74978;37.772;-122.432;2024-01-15T00:36:41;4;4;
84751;PMS5003;74978;37.772;-122.432;2024-01-15T00:39:07;4;2;
84751;PMS5003;74978;37.772;-122.432;2024-01-15T00:41:33;5;3;
84751;PMS5003;74978;37.772;-122.432;2024-01-15T00:43:57;5;4;
84751;PMS5003;74978;37.772;-122.432;2024-01-15T00:46:24;4;4;
84751;PMS5003;74978;37.772;-122.432;2024-01-15T00:48:48;8;7;
84751;PMS5003;74978;37.772;-122.432;2024-01-15T00:51:14;9;9;
84751;PMS5003;74978;37.772;-122.432;2024-01-15T00:53:40;5;5;
84751;PMS5003;74978;37.772;-122.432;2024-01-15T00:56:05;6;4;
84751;PMS5003;74978;37.772;-122.432;2024-01-15T00:58:30;14;11;
84751;PMS5003;74978;37.772;-122.432;2024-01-15T01:00:55;6;6;
84751;PMS5003;74978;37.772;-122.432;2024-01-15T01:03:20;9;6;
84751;PMS5003;74978;37.772;-122.432;2024-01-15T01:05:48;10;9;
84751;PMS5003;74978;37.772;-122.432;2024-01-15T01:08:11;6;5;
84751;PMS5003;74978;37.772;-122.432;2024-01-15T01:10:38;8;7;
84751;PMS5003;74978;37.772;-122.432;2024-01-15T01:13:02;4;4;
84751;PMS5003;74978;37.772;-122.432;2024-01-15T01:15:27;8;6;
84751;PMS5003;74978;37.772;-122.432;2024-01-15T01:17:52;8;6;
84751;PMS5003;74978;37.772;-122.432;2024-01-15T01:20:18;5;5;
84751;PMS5003;74978;37.772;-122.432;2024-01-15T01:22:44;5;5;
84751;PMS5003;74978;37.772;-122.432;2024-01-15T01:25:09;7;5;
84751;PMS5003;74978;37.772;-122.432;2024-01-15T01:27:35;6;6;
84751;PMS5003;74978;37.772;-122.432;2024-01-15T01:30:00;4;4;
84751;PMS5003;74978;37.772;-122.432;2024-01-15T01:32:25;8;6;
84751;PMS5003;74978;37.772;-122.432;2024-01-15T01:34:52;8;6;
84751;PMS5003;74978;37.772;-122.432;2024-01-15T01:37:16;8;8;
84751;PMS5003;74978;37.772;-122.432;2024-01-15T01:39:42;6;6;
84751;PMS5003;74978;37.772;-122.432;2024-01-15T01:42:07;6;6;
84751;PMS5003;74978;37.772;-122.432;2024-01-15T01:44:33;8;7;
84751;PMS5003;74978;37.772;-122.432;2024-01-15T01:46:59;9;6;
84751;PMS5003;74978;37.772;-122.432;2024-01-15T01:49:24;7;7;
84751;PMS5003;74978;37.772;-122.432;2024-01-15T01:51:50;9;6;
84751;PMS5003;74978;37.772;-122.432;2024-01-15T01:54:15;11;11;
84751;PMS5003;74978;37.772;-122.432;2024-01-15T01:56:41;12;12;
84751;PMS5003;74978;37.772;-122.432;2024-01-15T01:59:08;6;6;
84751;PMS5003;74978;37.772;-122.432;2024-01-15T02:01:32;13;10;
84751;PMS5003;74978;37.772;-122.432;2024-01-15T02:03:57;7;7;
84751;PMS5003;74978;37.772;-122.432;2024-01-15T02:06:23;9;8;
84751;PMS5003;74978;37.772;-122.432;2024-01-15T02:08:48;7;7;
84751;PMS5003;74978;37.772;-122.432;2024-01-15T02:11:14;8;8;
84751;PMS5003;74978;37.772;-122.432;2024-01-15T02:13:39;9;7;
84751;PMS5003;74978;37.772;-122.432;2024-01-15T02:16:04;9;7;
84751;PMS5003;74978;37.772;-122.432;2024-01-15T02:18:29;7;7;
84751;PMS5003;74978;37.772;-122.432;2024-01-15T02:20:55;10;10;
84751;PMS5003;74978;37.772;-122.432;2024-01-15T02:23:20;11;9;
84751;PMS5003;74978;37.772;-122.432;2024-01-15T02:25:46;7;7;
84751;PMS5003;74978;37.772;-122.432;2024-01-15T02:28:11;7;5;
84751;PMS5003;74978;37.772;-122.432;2024-01-15T02:30:37;7;7;
84751;PMS5003;74978;37.772;-122.432;2024-01-15T02:33:01;9;8;
84751;PMS5003;74978;37.772;-122.432;2024-01-15T02:35:27;11;8;
84751;PMS5003;74978;37.772;-122.432;2024-01-15T02:37:53;7;7;
84751;PMS5003;74978;37.772;-122.432;2024-01-15T02:40:18;8;7;
84751;PMS5003;74978;37.772;-122.432;2024-01-15T02:42:44;6;6;
84751;PMS5003;74978;37.772;-122.432;2024-01-15T02:45:09;12;9;
84751;PMS5003;74978;37.772;-122.432;2024-01-15T02:47:34;14;13;
84751;PMS5003;74978;37.772;-122.432;2024-01-15T02:50:00;8;8;
84751;PMS5003;74978;37.772;-122.432;2024-01-15T02:52:26;9;9;
84751;PMS5003;74978;37.772;-122.432;2024-01-15T02:54:51;11;7;
84751;PMS5003;74978;37.772;-122.432;2024-01-15T02:57:17;11;8;
84751;PMS5003;74978;37.772;-122.432;2024-01-15T02:59:42;13;10;
84751;PMS5003;74978;37.772;-122.432;2024-01-15T03:02:07;10;9;
84751;PMS5003;74978;37.772;-122.432;2024-01-15T03:04:33;9;9;
84751;PMS5003;74978;37.772;-122.432;2024-01-15T03:06:58;11;10;
84751;PMS5003;74978;37.772;-122.432;2024-01-15T03:09:23;12;12;
84751;PMS5003;74978;37.772;-122.432;2024-01-15T03:11:49;13;10;
84751;PMS5003;74978;37.772;-122.432;2024-01-15T03:14:14;17;16;
84751;PMS5003;74978;37.772;-122.432;2024-01-15T03:16:40;19;16;
84751;PMS5003;74978;37.772;-122.432;2024-01-15T03:19:05;16;14;
84751;PMS5003;74978;37.772;-122.432;2024-01-15T03:21:31;17;15;
84751;PMS5003;74978;37.772;-122.432;2024-01-15T03:23:58;13;13;
84751;PMS5003;74978;37.772;-122.432;2024-01-15T03:26:23;19;17;
84751;PMS5003;74978;37.772;-122.432;2024-01-15T03:28:48;12;10;
84751;PMS5003;74978;37.772;-122.432;2024-01-15T03:31:14;10;9;
84751;PMS5003;74978;37.772;-122.432;2024-01-15T03:33:39;13;13;
84751;PMS5003;74978;37.772;-122.432;2024-01-15T03:36:05;15;13;
84751;PMS5003;74978;37.772;-122.432;2024-01-15T03:38:30;11;11;
84751;PMS5003;74978;37.772;-122.432;2024-01-15T03:40:55;15;12;
84751;PMS5003;74978;37.772;-122.432;2024-01-15T03:43:20;22;20;
84751;PMS5003;74978;37.772;-122.432;2024-01-15T03:45:45;20;17;
84751;PMS5003;74978;37.772;-122.432;2024-01-15T03:48:11;16;14;
84751;PMS5003;74978;37.772;-122.432;2024-01-15T03:50:36;13;12;
84751;PMS5003;74978;37.772;-122.432;2024-01-15T03:53:01;13;12;
84751;PMS5003;74978;37.772;-122.432;2024-01-15T03:55:26;16;13;
84751;PMS5003;74978;37.772;-122.432;2024-01-15T03:57:52;19;17;
84751;PMS5003;74978;37.772;-122.432;2024-01-15T04:00:18;13;12;
84751;PMS5003;74978;37.772;-122.432;2024-01-15T04:02:43;17;16;
84751;PMS5003;74978;37.772;-122.432;2024-01-15T04:05:08;16;16;
84751;PMS5003;74978;37.772;-122.432;2024-01-15T04:07:33;14;14;
84751;PMS5003;74978;37.772;-122.432;2024-01-15T04:09:59;14;12;
84751;PMS5003;74978;37.772;-122.432;2024-01-15T04:12:25;12;12;
84751;PMS5003;74978;37.772;-122.432;2024-01-15T04:14:50;10;10;
84751;PMS5003;74978;37.772;-122.432;2024-01-15T04:17:16;10;10;
84751;PMS5003;74978;37.772;-122.432;2024-01-15T04:19:43;10;8;
84751;PMS5003;74978;37.772;-122.432;2024-01-15T04:22:07;6;5;
84751;PMS5003;74978;37.772;-122.432;2024-01-15T04:24:34;6;6;
84751;PMS5003;74978;37.772;-122.432;2024-01-15T04:26:58;14;11;
84751;PMS5003;74978;37.772;-122.432;2024-01-15T04:29:24;6;6;
84751;PMS5003;74978;37.772;-122.432;2024-01-15T04:31:49;9;8;
84751;PMS5003;74978;37.772;-122.432;2024-01-15T04:34:15;6;6;
84751;PMS5003;74978;37.772;-122.432;2024-01-15T04:36:41;11;8;
84751;PMS5003;74978;37.772;-122.432;2024-01-15T04:39:06;8;8;
84751;PMS5003;74978;37.772;-122.432;2024-01-15T04:41:31;9;9;
84751;PMS5003;74978;37.772;-122.432;2024-01-15T04:43:57;9;9;
84751;PMS5003;74978;37.772;-122.432;2024-01-15T04:46:22;9;7;
84751;PMS5003;74978;37.772;-122.432;2024-01-15T04:48:48;8;8;
84751;PMS5003;74978;37.772;-122.432;2024-01-15T04:51:13;8;8;
84751;PMS5003;74978;37.772;-122.432;2024-01-15T04:53:39;11;9;
84751;PMS5003;74978;37.772;-122.432;2024-01-15T04:56:05;9;8;
84751;PMS5003;74978;37.772;-122.432;2024-01-15T04:58:30;12;12;
84751;PMS5003;74978;37.772;-122.432;2024-01-15T05:00:56;12;12;
84751;PMS5003;74978;37.772;-122.432;2024-01-15T05:03:21;15;14;
84751;PMS5003;74978;37.772;-122.432;2024-01-15T05:05:46;14;14;
84751;PMS5003;74978;37.772;-122.432;2024-01-15T05:08:12;12;11;
84751;PMS5003;74978;37.772;-122.432;2024-01-15T05:10:37;12;12;
84751;PMS5003;74978;37.772;-122.432;2024-01-15T05:13:03;16;14;
84751;PMS5003;74978;37.772;-122.432;2024-01-15T05:15:28;20;19;
84751;PMS5003;74978;37.772;-122.432;2024-01-15T05:17:53;17;15;
84751;PMS5003;74978;37.772;-122.432;2024-01-15T05:20:19;22;22;
84751;PMS5003;74978;37.772;-122.432;2024-01-15T05:22:45;23;23;
84751;PMS5003;74978;37.772;-122.432;2024-01-15T05:25:12;19;19;
84751;PMS5003;74978;37.772;-122.432;2024-01-15T05:27:36;27;23;
84751;PMS5003;74978;37.772;-122.432;2024-01-15T05:30:01;29;26;
84751;PMS5003;74978;37.772;-122.432;2024-01-15T05:32:26;25;24;
84751;PMS5003;74978;37.772;-122.432;2024-01-15T05:34:51;29;27;
84751;PMS5003;74978;37.772;-122.432;2024-01-15T05:37:17;27;24;
84751;PMS5003;74978;37.772;-122.432;2024-01-15T05:39:42;24;23;
84751;PMS5003;74978;37.772;-122.432;2024-01-15T05:42:07;26;26;
84751;PMS5003;74978;37.772;-122.432;2024-01-15T05:44:32;30;27;
84751;PMS5003;74978;37.772;-122.432;2024-01-15T05:46:57;26;23;
84751;PMS5003;74978;37.772;-122.432;2024-01-15T05:49:23;28;27;
84751;PMS5003;74978;37.772;-122.432;2024-01-15T05:51:48;25;23;
84751;PMS5003;74978;37.772;-122.432;2024-01-15T05:54:13;27;22;
84751;PMS5003;74978;37.772;-122.432;2024-01-15T05:56:38;22;19;
84751;PMS5003;74978;37.772;-122.432;2024-01-15T05:59:04;24;21;
84751;PMS5003;74978;37.772;-122.432;2024-01-15T06:01:30;22;21;
84751;PMS5003;74978;37.772;-122.432;2024-01-15T06:03:55;27;24;
84751;PMS5003;74978;37.772;-122.432;2024-01-15T06:06:21;24;24;
84751;PMS5003;74978;37.772;-122.432;2024-01-15T06:08:46;24;22;
84751;PMS5003;74978;37.772;-122.432;2024-01-15T06:11:11;22;22;
84751;PMS5003;74978;37.772;-122.432;2024-01-15T06:13:37;21;19;
84751;PMS5003;74978;37.772;-122.432;2024-01-15T06:16:03;23;20;
84751;PMS5003;74978;37.772;-122.432;2024-01-15T06:18:28;20;20;
84751;PMS5003;74978;37.772;-122.432;2024-01-15T06:20:53;23;22;
84751;PMS5003;74978;37.772;-122.432;2024-01-15T06:23:19;24;23;
84751;PMS5003;74978;37.772;-122.432;2024-01-15T06:25:44;20;19;
84751;PMS5003;74978;37.772;-122.432;2024-01-15T06:28:09;23;21;
84751;PMS5003;74978;37.772;-122.432;2024-01-15T06:30:34;25;22;
84751;PMS5003;74978;37.772;-122.432;2024-01-15T06:32:59;25;22;
84751;PMS5003;74978;37.772;-122.432;2024-01-15T06:35:25;27;27;
84751;PMS5003;74978;37.772;-122.432;2024-01-15T06:37:50;28;28;
84751;PMS5003;74978;37.772;-122.432;2024-01-15T06:40:15;29;26;
84751;PMS5003;74978;37.772;-122.432;2024-01-15T06:42:41;27;23;
84751;PMS5003;74978;37.772;-122.432;2024-01-15T06:45:07;25;25;
84751;PMS5003;74978;37.772;-122.432;2024-01-15T06:47:32;28;28;
84751;PMS5003;74978;37.772;-122.432;2024-01-15T06:49:59;26;23;
84751;PMS5003;74978;37.772;-122.432;2024-01-15T06:52:23;27;26;
84751;PMS5003;74978;37.772;-122.432;2024-01-15T06:54:49;26;26;
84751;PMS5003;74978;37.772;-122.432;2024-01-15T06:57:15;25;21;
84751;PMS5003;74978;37.772;-122.432;2024-01-15T06:59:40;25;23;
84751;PMS5003;74978;37.772;-122.432;2024-01-15T07:02:06;22;21;
84751;PMS5003;74978;37.772;-122.432;2024-01-15T07:04:31;30;30;
84751;PMS5003;74978;37.772;-122.432;2024-01-15T07:06:57;25;25;
84751;PMS5003;74978;37.772;-122.432;2024-01-15T07:09:23;28;27;
84751;PMS5003;74978;37.772;-122.432;2024-01-15T07:11:48;25;25;
84751;PMS5003;74978;37.772;-122.432;2024-01-15T07:14:14;32;24;
84751;PMS5003;74978;37.772;-122.432;2024-01-15T07:16:39;23;21;
84751;PMS5003;74978;37.772;-122.432;2024-01-15T07:19:04;30;25;
84751;PMS5003;74978;37.772;-122.432;2024-01-15T07:21:30;26;25;
84751;PMS5003;74978;37.772;-122.432;2024-01-15T07:23:56;22;21;
84751;PMS5003;74978;37.772;-122.432;2024-01-15T07:26:21;30;27;
84751;PMS5003;74978;37.772;-122.432;2024-01-15T07:28:47;28;27;
84751;PMS5003;74978;37.772;-122.432;2024-01-15T07:31:12;27;27;
84751;PMS5003;74978;37.772;-122.432;2024-01-15T07:33:38;22;22;
84751;PMS5003;74978;37.772;-122.432;2024-01-15T07:36:03;28;26;
84751;PMS5003;74978;37.772;-122.432;2024-01-15T07:38:29;25;25;
84751;PMS5003;74978;37.772;-122.432;2024-01-15T07:40:54;27;27;
84751;PMS5003;74978;37.772;-122.432;2024-01-15T07:43:19;24;23;
84751;PMS5003;74978;37.772;-122.432;2024-01-15T07:45:44;17;17;
84751;PMS5003;74978;37.772;-122.432;2024-01-15T07:48:09;19;19;
84751;PMS5003;74978;37.772;-122.432;2024-01-15T07:50:35;27;25;
84751;PMS5003;74978;37.772;-122.432;2024-01-15T07:53:00;23;22;
84751;PMS5003;74978;37.772;-122.432;2024-01-15T07:55:25;13;13;
84751;PMS5003;74978;37.772;-122.432;2024-01-15T07:57:51;21;20;
84751;PMS5003;74978;37.772;-122.432;2024-01-15T08:00:19;16;15;
84751;PMS5003;74978;37.772;-122.432;2024-01-15T08:02:42;15;15;
84751;PMS5003;74978;37.772;-122.432;2024-01-15T08:05:08;14;14;
84751;PMS5003;74978;37.772;-122.432;2024-01-15T08:07:33;12;10;
84751;PMS5003;74978;37.772;-122.432;2024-01-15T08:09:58;15;15;
84751;PMS5003;74978;37.772;-122.432;2024-01-15T08:12:24;12;12;
84751;PMS5003;74978;37.772;-122.432;2024-01-15T08:14:49;9;9;
84751;PMS5003;74978;37.772;-122.432;2024-01-15T08:17:15;8;8;
84751;PMS5003;74978;37.772;-122.432;2024-01-15T08:19:41;9;9;
84751;PMS5003;74978;37.772;-122.432;2024-01-15T08:22:06;11;10;
84751;PMS5003;74978;37.772;-122.432;2024-01-15T08:24:33;10;10;
84751;PMS5003;74978;37.772;-122.432;2024-01-15T08:26:58;10;10;
84751;PMS5003;74978;37.772;-122.432;2024-01-15T08:29:23;14;11;
84751;PMS5003;74978;37.772;-122.432;2024-01-15T08:31:48;10;10;
84751;PMS5003;74978;37.772;-122.432;2024-01-15T08:34:13;12;12;
84751;PMS5003;74978;37.772;-122.432;2024-01-15T08:36:40;15;15;
84751;PMS5003;74978;37.772;-122.432;2024-01-15T08:39:05;15;15;
84751;PMS5003;74978;37.772;-122.432;2024-01-15T08:41:31;15;14;
84751;PMS5003;74978;37.772;-122.432;2024-01-15T08:43:55;19;16;
84751;PMS5003;74978;37.772;-122.432;2024-01-15T08:46:21;21;19;
84751;PMS5003;74978;37.772;-122.432;2024-01-15T08:48:46;17;15;
84751;PMS5003;74978;37.772;-122.432;2024-01-15T08:51:11;17;16;
84751;PMS5003;74978;37.772;-122.432;2024-01-15T08:53:37;16;15;
84751;PMS5003;74978;37.772;-122.432;2024-01-15T08:56:02;15;15;
84751;PMS5003;74978;37.772;-122.432;2024-01-15T08:58:28;16;16;
84751;PMS5003;74978;37.772;-122.432;2024-01-15T09:00:54;17;17;
84751;PMS5003;74978;37.772;-122.432;2024-01-15T09:03:19;20;20;
84751;PMS5003;74978;37.772;-122.432;2024-01-15T09:05:44;19;19;
84751;PMS5003;74978;37.772;-122.432;2024-01-15T09:08:09;19;17;
84751;PMS5003;74978;37.772;-122.432;2024-01-15T09:10:35;17;16;
84751;PMS5003;74978;37.772;-122.432;2024-01-15T09:13:01;16;16;
84751;PMS5003;74978;37.772;-122.432;2024-01-15T09:15:26;17;17;
84751;PMS5003;74978;37.772;-122.432;2024-01-15T09:17:52;15;13;
84751;PMS5003;74978;37.772;-122.432;2024-01-15T09:20:17;15;15;
84751;PMS5003;74978;37.772;-122.432;2024-01-15T09:22:43;17;16;
84751;PMS5003;74978;37.772;-122.432;2024-01-15T09:25:09;19;18;
84751;PMS5003;74978;37.772;-122.432;2024-01-15T09:27:34;18;16;
84751;PMS5003;74978;37.772;-122.432;2024-01-15T09:29:59;18;16;
84751;PMS5003;74978;37.772;-122.432;2024-01-15T09:32:25;19;18;
84751;PMS5003;74978;37.772;-122.432;2024-01-15T09:34:50;20;19;
84751;PMS5003;74978;37.772;-122.432;2024-01-15T09:37:16;18;18;
84751;PMS5003;74978;37.772;-122.432;2024-01-15T09:39:41;15;15;
84751;PMS5003;74978;37.772;-122.432;2024-01-15T09:42:07;19;19;
84751;PMS5003;74978;37.772;-122.432;2024-01-15T09:44:32;16;16;
84751;PMS5003;74978;37.772;-122.432;2024-01-15T09:46:58;15;14;
84751;PMS5003;74978;37.772;-122.432;2024-01-15T09:49:23;15;13;
84751;PMS5003;74978;37.772;-122.432;2024-01-15T09:51:48;20;17;
84751;PMS5003;74978;37.772;-122.432;2024-01-15T09:54:14;18;17;
84751;PMS5003;74978;37.772;-122.432;2024-01-15T09:56:39;15;15;
84751;PMS5003;74978;37.772;-122.432;2024-01-15T09:59:05;20;17;
84751;PMS5003;74978;37.772;-122.432;2024-01-15T10:01:31;17;17;
84751;PMS5003;74978;37.772;-122.432;2024-01-15T10:03:55;18;18;
84751;PMS5003;74978;37.772;-122.432;2024-01-15T10:06:21;18;18;
84751;PMS5003;74978;37.772;-122.432;2024-01-15T10:08:48;22;16;
84751;PMS5003;74978;37.772;-122.432;2024-01-15T10:11:12;16;16;
84751;PMS5003;74978;37.772;-122.432;2024-01-15T10:13:38;20;18;
84751;PMS5003;74978;37.772;-122.432;2024-01-15T10:16:03;22;21;
84751;PMS5003;74978;37.772;-122.432;2024-01-15T10:18:28;20;19;
84751;PMS5003;74978;37.772;-122.432;2024-01-15T10:20:53;17;17;
84751;PMS5003;74978;37.772;-122.432;2024-01-15T10:23:19;18;18;
84751;PMS5003;74978;37.772;-122.432;2024-01-15T10:25:46;21;20;
84751;PMS5003;74978;37.772;-122.432;2024-01-15T10:28:10;18;18;
84751;PMS5003;74978;37.772;-122.432;2024-01-15T10:30:36;19;19;
84751;PMS5003;74978;37.772;-122.432;2024-01-15T10:33:01;17;17;
84751;PMS5003;74978;37.772;-122.432;2024-01-15T10:35:26;19;19;
84751;PMS5003;74978;37.772;-122.432;2024-01-15T10:37:52;18;18;
84751;PMS5003;74978;37.772;-122.432;2024-01-15T10:40:17;15;14;
84751;PMS5003;74978;37.772;-122.432;2024-01-15T10:42:42;19;14;
84751;PMS5003;74978;37.772;-122.432;2024-01-15T10:45:08;19;18;
84751;PMS5003;74978;37.772;-122.432;2024-01-15T10:47:33;13;13;
84751;PMS5003;74978;37.772;-122.432;2024-01-15T10:49:59;14;12;
84751;PMS5003;74978;37.772;-122.432;2024-01-15T10:52:23;16;16;
84751;PMS5003;74978;37.772;-122.432;2024-01-15T10:54:48;15;15;
84751;PMS5003;74978;37.772;-122.432;2024-01-15T10:57:13;15;14;
84751;PMS5003;74978;37.772;-122.432;2024-01-15T10:59:39;15;15;
84751;PMS5003;74978;37.772;-122.432;2024-01-15T11:02:05;14;14;
84751;PMS5003;74978;37.772;-122.432;2024-01-15T11:04:31;22;18;
84751;PMS5003;74978;37.772;-122.432;2024-01-15T11:06:56;15;15;
84751;PMS5003;74978;37.772;-122.432;2024-01-15T11:09:21;18;18;
84751;PMS5003;74978;37.772;-122.432;2024-01-15T11:11:47;19;14;
84751;PMS5003;74978;37.772;-122.432;2024-01-15T11:19:04;16;16;
84751;PMS5003;74978;37.772;-122.432;2024-01-15T11:21:29;14;14;
84751;PMS5003;74978;37.772;-122.432;2024-01-15T11:23:55;13;12;
84751;PMS5003;74978;37.772;-122.432;2024-01-15T11:26:31;17;17;
84751;PMS5003;74978;37.772;-122.432;2024-01-15T11:28:47;14;13;
84751;PMS5003;74978;37.772;-122.432;2024-01-15T11:31:13;15;13;
84751;PMS5003;74978;37.772;-122.432;2024-01-15T11:33:37;13;13;
84751;PMS5003;74978;37.772;-122.432;2024-01-15T11:36:02;16;15;
84751;PMS5003;74978;37.772;-122.432;2024-01-15T11:38:28;18;16;
84751;PMS5003;74978;37.772;-122.432;2024-01-15T11:40:53;15;13;
84751;PMS5003;74978;37.772;-122.432;2024-01-15T11:43:19;12;12;
84751;PMS5003;74978;37.772;-122.432;2024-01-15T11:45:44;15;15;
84751;PMS5003;74978;37.772;-122.432;2024-01-15T11:48:10;17;15;
84751;PMS5003;74978;37.772;-122.432;2024-01-15T11:50:36;13;13;
84751;PMS5003;74978;37.772;-122.432;2024-01-15T11:53:01;15;13;
84751;PMS5003;74978;37.772;-122.432;2024-01-15T11:55:26;15;12;
84751;PMS5003;74978;37.772;-122.432;2024-01-15T11:57:52;16;14;
84751;PMS5003;74978;37.772;-122.432;2024-01-15T12:00:17;13;13;
84751;PMS5003;74978;37.772;-122.432;2024-01-15T12:02:44;14;12;
84751;PMS5003;74978;37.772;-122.432;2024-01-15T12:05:09;12;11;
84751;PMS5003;74978;37.772;-122.432;2024-01-15T12:07:34;12;12;
84751;PMS5003;74978;37.772;-122.432;2024-01-15T12:10:00;15;14;
84751;PMS5003;74978;37.772;-122.432;2024-01-15T12:12:27;12;12;
84751;PMS5003;74978;37.772;-122.432;2024-01-15T12:14:52;16;16;
84751;PMS5003;74978;37.772;-122.432;2024-01-15T12:17:16;20;19;
84751;PMS5003;74978;37.772;-122.432;2024-01-15T12:19:41;13;12;
84751;PMS5003;74978;37.772;-122.432;2024-01-15T12:22:07;17;16;
84751;PMS5003;74978;37.772;-122.432;2024-01-15T12:24:32;18;17;
84751;PMS5003;74978;37.772;-122.432;2024-01-15T12:26:57;16;12;
84751;PMS5003;74978;37.772;-122.432;2024-01-15T12:29:22;14;14;
84751;PMS5003;74978;37.772;-122.432;2024-01-15T12:31:48;15;14;
84751;PMS5003;74978;37.772;-122.432;2024-01-15T12:34:13;13;11;
84751;PMS5003;74978;37.772;-122.432;2024-01-15T12:36:40;13;12;
84751;PMS5003;74978;37.772;-122.432;2024-01-15T12:39:05;14;13;
84751;PMS5003;74978;37.772;-122.432;2024-01-15T12:41:30;15;14;
84751;PMS5003;74978;37.772;-122.432;2024-01-15T12:43:56;20;18;
84751;PMS5003;74978;37.772;-122.432;2024-01-15T12:46:21;17;17;
84751;PMS5003;74978;37.772;-122.432;2024-01-15T12:48:47;16;14;
84751;PMS5003;74978;37.772;-122.432;2024-01-15T12:51:13;17;15;
84751;PMS5003;74978;37.772;-122.432;2024-01-15T12:53:38;15;12;
84751;PMS5003;74978;37.772;-122.432;2024-01-15T12:56:04;13;11;
84751;PMS5003;74978;37.772;-122.432;2024-01-15T12:58:29;13;13;
84751;PMS5003;74978;37.772;-122.432;2024-01-15T13:00:55;12;12;
84751;PMS5003;74978;37.772;-122.432;2024-01-15T13:03:22;11;11;
84751;PMS5003;74978;37.772;-122.432;2024-01-15T13:05:46;9;9;
84751;PMS5003;74978;37.772;-122.432;2024-01-15T13:08:12;10;10;
84751;PMS5003;74978;37.772;-122.432;2024-01-15T13:10:37;14;14;
84751;PMS5003;74978;37.772;-122.432;2024-01-15T13:13:05;13;13;
84751;PMS5003;74978;37.772;-122.432;2024-01-15T13:15:29;15;15;
84751;PMS5003;74978;37.772;-122.432;2024-01-15T13:17:54;13;12;
84751;PMS5003;74978;37.772;-122.432;2024-01-15T13:20:20;13;13;
84751;PMS5003;74978;37.772;-122.432;2024-01-15T13:22:45;12;10;
84751;PMS5003;74978;37.772;-122.432;2024-01-15T13:25:11;16;15;
84751;PMS5003;74978;37.772;-122.432;2024-01-15T13:27:37;12;12;
84751;PMS5003;74978;37.772;-122.432;2024-01-15T13:30:02;13;13;
84751;PMS5003;74978;37.772;-122.432;2024-01-15T13:32:27;12;12;
84751;PMS5003;74978;37.772;-122.432;2024-01-15T13:34:53;13;13;
84751;PMS5003;74978;37.772;-122.432;2024-01-15T13:37:18;14;13;
84751;PMS5003;74978;37.772;-122.432;2024-01-15T13:39:44;12;12;
84751;PMS5003;74978;37.772;-122.432;2024-01-15T13:42:09;14;12;
84751;PMS5003;74978;37.772;-122.432;2024-01-15T13:44:35;17;15;
84751;PMS5003;74978;37.772;-122.432;2024-01-15T13:47:01;12;11;
84751;PMS5003;74978;37.772;-122.432;2024-01-15T13:49:26;15;15;
84751;PMS5003;74978;37.772;-122.432;2024-01-15T13:51:52;12;11;
84751;PMS5003;74978;37.772;-122.432;2024-01-15T13:54:17;13;12;
84751;PMS5003;74978;37.772;-122.432;2024-01-15T13:56:43;15;12;
84751;PMS5003;74978;37.772;-122.432;2024-01-15T13:59:09;11;11;
84751;PMS5003;74978;37.772;-122.432;2024-01-15T14:01:34;16;16;
84751;PMS5003;74978;37.772;-122.432;2024-01-15T14:04:00;11;11;
84751;PMS5003;74978;37.772;-122.432;2024-01-15T14:06:25;12;12;
84751;PMS5003;74978;37.772;-122.432;2024-01-15T14:08:51;13;13;
84751;PMS5003;74978;37.772;-122.432;2024-01-15T14:11:16;15;14;
84751;PMS5003;74978;37.772;-122.432;2024-01-15T14:13:41;15;13;
84751;PMS5003;74978;37.772;-122.432;2024-01-15T14:16:07;17;17;
84751;PMS5003;74978;37.772;-122.432;2024-01-15T14:18:32;13;13;
84751;PMS5003;74978;37.772;-122.432;2024-01-15T14:20:58;13;13;
84751;PMS5003;74978;37.772;-122.432;2024-01-15T14:23:24;14;12;
84751;PMS5003;74978;37.772;-122.432;2024-01-15T14:25:49;17;17;
84751;PMS5003;74978;37.772;-122.432;2024-01-15T14:28:15;15;15;
84751;PMS5003;74978;37.772;-122.432;2024-01-15T14:30:40;12;12;
84751;PMS5003;74978;37.772;-122.432;2024-01-15T14:33:06;11;11;
84751;PMS5003;74978;37.772;-122.432;2024-01-15T14:35:32;18;16;
84751;PMS5003;74978;37.772;-122.432;2024-01-15T14:37:57;14;13;
84751;PMS5003;74978;37.772;-122.432;2024-01-15T14:40:23;18;17;
84751;PMS5003;74978;37.772;-122.432;2024-01-15T14:42:48;17;17;
84751;PMS5003;74978;37.772;-122.432;2024-01-15T14:45:13;12;12;
84751;PMS5003;74978;37.772;-122.432;2024-01-15T14:47:39;17;17;
84751;PMS5003;74978;37.772;-122.432;2024-01-15T14:50:05;14;14;
84751;PMS5003;74978;37.772;-122.432;2024-01-15T14:52:30;14;14;
84751;PMS5003;74978;37.772;-122.432;2024-01-15T14:54:56;18;18;
84751;PMS5003;74978;37.772;-122.432;2024-01-15T14:57:21;12;11;
84751;PMS5003;74978;37.772;-122.432;2024-01-15T14:59:47;11;11;
84751;PMS5003;74978;37.772;-122.432;2024-01-15T15:02:12;15;14;
84751;PMS5003;74978;37.772;-122.432;2024-01-15T15:04:38;11;11;
84751;PMS5003;74978;37.772;-122.432;2024-01-15T15:07:04;9;9;
84751;PMS5003;74978;37.772;-122.432;2024-01-15T15:09:29;11;10;
84751;PMS5003;74978;37.772;-122.432;2024-01-15T15:11:54;13;12;
84751;PMS5003;74978;37.772;-122.432;2024-01-15T15:14:20;12;12;
84751;PMS5003;74978;37.772;-122.432;2024-01-15T15:16:47;10;10;
84751;PMS5003;74978;37.772;-122.432;2024-01-15T15:19:11;12;12;
84751;PMS5003;74978;37.772;-122.432;2024-01-15T15:21:37;14;14;
84751;PMS5003;74978;37.772;-122.432;2024-01-15T15:24:02;15;15;
84751;PMS5003;74978;37.772;-122.432;2024-01-15T15:26:28;17;16;
84751;PMS5003;74978;37.772;-122.432;2024-01-15T15:28:53;15;15;